createdAt,value
2022-08-27T00:01:49.731Z,99044.06
2022-08-27T00:04:17.253Z,99045.31
2022-08-27T00:06:46.215Z,99045.81
2022-08-27T00:09:14.144Z,99052.56
2022-08-27T00:11:42.220Z,99052.22
2022-08-27T00:14:09.375Z,99051.25
2022-08-27T00:16:37.380Z,99049.03
2022-08-27T00:19:05.277Z,99048.81
2022-08-27T00:21:34.777Z,99041.44
2022-08-27T00:24:02.017Z,99055.44
2022-08-27T00:26:29.750Z,99050.28
2022-08-27T00:28:59.495Z,99054.81
2022-08-27T00:31:29.249Z,99062.91
2022-08-27T00:33:57.041Z,99059.75
2022-08-27T00:36:26.954Z,99060.72
2022-08-27T00:38:55.159Z,99063.78
2022-08-27T00:41:23.218Z,99061.28
2022-08-27T00:43:50.494Z,99070.84
2022-08-27T00:46:29.368Z,99074.03
2022-08-27T00:49:05.270Z,99070.81
2022-08-27T00:51:33.480Z,99082.78
2022-08-27T00:54:02.752Z,99081.81
2022-08-27T00:56:37.817Z,99078.75
2022-08-27T00:59:05.460Z,99086.41
2022-08-27T01:01:35.866Z,99082.22
2022-08-27T01:04:06.067Z,99077.53
2022-08-27T01:06:37.866Z,99072.41
2022-08-27T01:09:12.181Z,99070.31
2022-08-27T01:11:42.553Z,99060.78
2022-08-27T01:14:10.059Z,99062.25
2022-08-27T01:16:41.357Z,99061.66
2022-08-27T01:19:33.518Z,99071.91
2022-08-27T01:22:27.689Z,99069.81
2022-08-27T01:25:00.191Z,99067.31
2022-08-27T01:27:31.724Z,99073.28
2022-08-27T01:29:59.975Z,99065.78
2022-08-27T01:32:32.598Z,99071.59
2022-08-27T01:35:01.323Z,99070.75
2022-08-27T01:37:28.887Z,99070.63
2022-08-27T01:39:59.008Z,99065.59
2022-08-27T01:42:31.307Z,99072.69
2022-08-27T01:45:04.727Z,99070.47
2022-08-27T01:47:37.748Z,99064.25
2022-08-27T01:50:09.546Z,99075.63
2022-08-27T01:52:37.404Z,99067.81
2022-08-27T01:55:07.668Z,99070.34
2022-08-27T01:57:35.472Z,99068.56
2022-08-27T02:00:14.091Z,99068.56
2022-08-27T02:02:42.276Z,99069.06
2022-08-27T02:05:13.937Z,99062.38
2022-08-27T02:07:44.273Z,99062.28
2022-08-27T02:10:16.249Z,99058.75
2022-08-27T02:12:46.088Z,99074.03
2022-08-27T02:15:15.536Z,99067.19
2022-08-27T02:17:42.702Z,99064.56
2022-08-27T02:20:11.140Z,99075.16
2022-08-27T02:22:39.130Z,99071.09
2022-08-27T02:25:10.254Z,99075.69
2022-08-27T02:27:37.677Z,99066.78
2022-08-27T02:30:06.303Z,99076.72
2022-08-27T02:32:36.849Z,99066.78
2022-08-27T02:35:05.853Z,99069.72
2022-08-27T02:37:33.424Z,99069.88
2022-08-27T02:40:01.890Z,99076.09
2022-08-27T02:42:29.153Z,99072.06
2022-08-27T02:44:56.807Z,99078.31
2022-08-27T02:47:26.035Z,99073.44
2022-08-27T02:49:53.239Z,99091.16
2022-08-27T02:52:24.209Z,99089.56
2022-08-27T02:54:55.663Z,99094.44
2022-08-27T02:57:23.523Z,99084.69
2022-08-27T02:59:52.054Z,99086.94
2022-08-27T03:02:21.080Z,99088.75
2022-08-27T03:04:48.375Z,99091.44
2022-08-27T03:07:18.987Z,99082.25
2022-08-27T03:09:46.780Z,99085.47
2022-08-27T03:12:13.915Z,99081.31
2022-08-27T03:14:40.907Z,99080.47
2022-08-27T03:17:29.157Z,99086.28
2022-08-27T03:19:56.465Z,99087.94
2022-08-27T03:22:23.660Z,99093.28
2022-08-27T03:24:50.768Z,99088.88
2022-08-27T03:27:18.210Z,99092.91
2022-08-27T03:29:45.484Z,99094.97
2022-08-27T03:32:12.687Z,99095.72
2022-08-27T03:34:40.649Z,99091.56
2022-08-27T03:37:13.651Z,99094.22
2022-08-27T03:39:41.217Z,99098.25
2022-08-27T03:42:13.172Z,99093.69
2022-08-27T03:44:40.497Z,99094.91
2022-08-27T03:47:07.959Z,99105.84
2022-08-27T03:49:35.037Z,99101.28
2022-08-27T03:52:02.949Z,99099.66
2022-08-27T03:54:32.094Z,99099.81
2022-08-27T03:57:01.960Z,99099.81
2022-08-27T03:59:29.741Z,99101.44
2022-08-27T04:01:57.083Z,99098.81
2022-08-27T04:04:24.837Z,99105.47
2022-08-27T04:06:52.471Z,99113.50
2022-08-27T04:09:22.218Z,99119.44
2022-08-27T04:11:49.583Z,99120.78
2022-08-27T04:14:20.752Z,99124.31
2022-08-27T04:16:56.824Z,99122.09
2022-08-27T04:19:27.937Z,99114.41
2022-08-27T04:22:03.362Z,99112.91
2022-08-27T04:24:33.472Z,99111.59
2022-08-27T04:27:01.724Z,99115.28
2022-08-27T04:29:29.620Z,99117.63
2022-08-27T04:31:56.982Z,99107.88
2022-08-27T04:34:24.761Z,99110.69
2022-08-27T04:36:55.486Z,99109.94
2022-08-27T04:39:23.082Z,99112.00
2022-08-27T04:41:51.801Z,99109.50
2022-08-27T04:44:20.033Z,99112.91
2022-08-27T04:46:49.305Z,99117.78
2022-08-27T04:49:17.935Z,99124.59
2022-08-27T04:51:46.050Z,99115.28
2022-08-27T04:54:14.208Z,99119.44
2022-08-27T04:56:42.706Z,99120.03
2022-08-27T04:59:13.114Z,99119.28
2022-08-27T05:01:41.953Z,99129.19
2022-08-27T05:04:13.310Z,99134.38
2022-08-27T05:06:42.042Z,99124.75
2022-08-27T05:09:10.313Z,99122.94
2022-08-27T05:11:40.372Z,99134.59
2022-08-27T05:14:10.501Z,99137.81
2022-08-27T05:16:38.741Z,99148.16
2022-08-27T05:19:09.694Z,99148.22
2022-08-27T05:21:39.108Z,99147.13
2022-08-27T05:24:08.183Z,99143.31
2022-08-27T05:26:36.230Z,99155.94
2022-08-27T05:29:05.582Z,99153.19
2022-08-27T05:31:33.820Z,99152.41
2022-08-27T05:34:02.290Z,99157.38
2022-08-27T05:36:48.635Z,99156.19
2022-08-27T05:39:17.546Z,99157.09
2022-08-27T05:41:45.934Z,99162.41
2022-08-27T05:44:39.529Z,99166.69
2022-08-27T05:47:04.903Z,99165.63
2022-08-27T05:49:34.335Z,99175.44
2022-08-27T05:52:08.658Z,99167.34
2022-08-27T05:54:35.823Z,99179.03
2022-08-27T05:57:02.982Z,99183.41
2022-08-27T05:59:51.156Z,99183.84
2022-08-27T06:02:19.624Z,99176.41
2022-08-27T06:04:47.915Z,99184.56
2022-08-27T06:07:15.648Z,99185.31
2022-08-27T06:09:43.413Z,99188.13
2022-08-27T06:12:10.936Z,99199.94
2022-08-27T06:14:38.730Z,99202.91
2022-08-27T06:17:06.706Z,99202.38
2022-08-27T06:19:36.706Z,99198.81
2022-08-27T06:22:09.849Z,99200.06
2022-08-27T06:24:42.784Z,99204.19
2022-08-27T06:27:13.871Z,99190.34
2022-08-27T06:29:42.412Z,99196.84
2022-08-27T06:32:09.778Z,99203.31
2022-08-27T06:34:38.229Z,99203.78
2022-08-27T06:37:07.084Z,99201.97
2022-08-27T06:39:36.318Z,99200.50
2022-08-27T06:42:04.844Z,99202.06
2022-08-27T06:44:36.611Z,99201.91
2022-08-27T06:47:04.287Z,99199.34
2022-08-27T06:49:33.683Z,99206.25
2022-08-27T06:52:01.494Z,99204.44
2022-08-27T06:54:28.760Z,99209.16
2022-08-27T06:57:01.591Z,99216.94
2022-08-27T06:59:29.120Z,99217.38
2022-08-27T07:01:56.779Z,99222.06
2022-08-27T07:04:32.369Z,99226.59
2022-08-27T07:07:02.367Z,99237.13
2022-08-27T07:09:32.939Z,99231.00
2022-08-27T07:12:01.738Z,99239.94
2022-08-27T07:14:34.216Z,99236.31
2022-08-27T07:17:04.366Z,99250.25
2022-08-27T07:19:32.404Z,99244.41
2022-08-27T07:22:03.343Z,99246.59
2022-08-27T07:24:30.439Z,99244.00
2022-08-27T07:26:57.700Z,99250.28
2022-08-27T07:29:26.098Z,99242.63
2022-08-27T07:31:56.057Z,99251.28
2022-08-27T07:34:25.877Z,99249.63
2022-08-27T07:36:53.079Z,99250.63
2022-08-27T07:39:20.081Z,99255.91
2022-08-27T07:42:08.325Z,99253.84
2022-08-27T07:44:35.393Z,99261.84
2022-08-27T07:47:02.935Z,99264.59
2022-08-27T07:49:32.174Z,99257.91
2022-08-27T07:51:59.500Z,99259.03
2022-08-27T07:54:27.380Z,99253.72
2022-08-27T07:56:57.025Z,99268.09
2022-08-27T07:59:26.217Z,99263.09
2022-08-27T08:01:59.485Z,99262.50
2022-08-27T08:04:27.420Z,99261.47
2022-08-27T08:06:56.088Z,99263.34
2022-08-27T08:09:26.335Z,99266.78
2022-08-27T08:11:54.568Z,99256.25
2022-08-27T08:14:22.079Z,99257.72
2022-08-27T08:16:49.819Z,99261.53
2022-08-27T08:19:17.518Z,99261.38
2022-08-27T08:21:45.029Z,99256.78
2022-08-27T08:24:14.991Z,99266.47
2022-08-27T08:26:42.618Z,99260.41
2022-08-27T08:29:09.678Z,99264.16
2022-08-27T08:31:49.925Z,99263.75
2022-08-27T08:34:21.703Z,99256.41
2022-08-27T08:36:55.102Z,99253.56
2022-08-27T08:39:23.539Z,99256.81
2022-08-27T08:42:00.331Z,99252.63
2022-08-27T08:44:48.988Z,99256.13
2022-08-27T08:47:26.671Z,99264.00
2022-08-27T08:50:16.763Z,99254.41
2022-08-27T08:52:52.604Z,99254.88
2022-08-27T08:55:32.557Z,99251.97
2022-08-27T08:58:13.362Z,99258.66
2022-08-27T09:00:46.149Z,99254.69
2022-08-27T09:03:18.439Z,99253.50
2022-08-27T09:06:02.461Z,99253.06
2022-08-27T09:08:41.808Z,99246.41
2022-08-27T09:11:21.953Z,99254.19
2022-08-27T09:13:53.513Z,99241.06
2022-08-27T09:16:20.878Z,99234.91
2022-08-27T09:18:51.294Z,99241.88
2022-08-27T09:21:27.501Z,99235.78
2022-08-27T09:24:02.861Z,99239.19
2022-08-27T09:26:32.992Z,99230.72
2022-08-27T09:29:16.459Z,99227.94
2022-08-27T09:31:47.653Z,99222.94
2022-08-27T09:34:15.590Z,99218.47
2022-08-27T09:36:53.539Z,99225.44
2022-08-27T09:39:30.336Z,99219.44
2022-08-27T09:41:57.634Z,99230.59
2022-08-27T09:44:25.652Z,99222.59
2022-08-27T09:46:59.422Z,99229.75
2022-08-27T09:49:27.333Z,99227.53
2022-08-27T09:51:56.074Z,99224.34
2022-08-27T09:54:37.855Z,99224.84
2022-08-27T09:57:07.774Z,99223.00
2022-08-27T09:59:38.675Z,99216.50
2022-08-27T10:02:21.066Z,99214.31
2022-08-27T10:04:54.274Z,99217.41
2022-08-27T10:07:41.684Z,99218.72
2022-08-27T10:10:53.713Z,99218.22
2022-08-27T10:13:38.876Z,99209.22
2022-08-27T10:16:34.652Z,99204.00
2022-08-27T10:19:33.015Z,99206.47
2022-08-27T10:22:20.428Z,99214.75
2022-08-27T10:24:53.764Z,99217.53
2022-08-27T10:27:30.183Z,99216.91
2022-08-27T10:30:16.224Z,99219.53
2022-08-27T10:33:12.809Z,99221.16
2022-08-27T10:35:54.670Z,99217.69
2022-08-27T10:38:26.258Z,99211.44
2022-08-27T10:41:14.450Z,99207.50
2022-08-27T10:44:13.897Z,99202.81
2022-08-27T10:46:50.738Z,99196.31
2022-08-27T10:49:33.289Z,99189.59
2022-08-27T10:52:12.776Z,99190.13
2022-08-27T10:54:43.591Z,99181.19
2022-08-27T10:57:45.483Z,99190.81
2022-08-27T11:00:19.833Z,99187.25
2022-08-27T11:03:15.276Z,99183.38
2022-08-27T11:05:47.573Z,99188.47
2022-08-27T11:08:18.049Z,99177.84
2022-08-27T11:11:26.090Z,99184.88
2022-08-27T11:13:53.572Z,99180.47
2022-08-27T11:16:44.794Z,99176.94
2022-08-27T11:19:22.800Z,99169.81
2022-08-27T11:22:30.084Z,99169.53
2022-08-27T11:25:00.169Z,99165.03
2022-08-27T11:27:31.344Z,99161.19
2022-08-27T11:30:02.688Z,99161.78
2022-08-27T11:32:45.424Z,99148.78
2022-08-27T11:35:24.649Z,99150.63
2022-08-27T11:38:13.770Z,99153.91
2022-08-27T11:40:49.436Z,99158.19
2022-08-27T11:43:22.604Z,99154.03
2022-08-27T11:46:02.352Z,99153.84
2022-08-27T11:48:33.437Z,99155.75
2022-08-27T11:51:06.321Z,99161.16
2022-08-27T11:53:42.807Z,99158.53
2022-08-27T11:56:36.826Z,99159.00
2022-08-27T11:59:25.269Z,99159.56
2022-08-27T12:01:57.971Z,99159.34
2022-08-27T12:04:31.651Z,99158.00
2022-08-27T12:07:27.415Z,99153.50
2022-08-27T12:10:01.697Z,99163.44
2022-08-27T12:12:53.556Z,99163.53
2022-08-27T12:15:54.877Z,99165.28
2022-08-27T12:18:49.655Z,99169.41
2022-08-27T12:21:19.846Z,99170.13
2022-08-27T12:24:21.178Z,99173.03
2022-08-27T12:26:56.186Z,99160.00
2022-08-27T12:29:31.819Z,99158.69
2022-08-27T12:32:24.947Z,99150.44
2022-08-27T12:35:23.022Z,99156.44
2022-08-27T12:38:05.764Z,99152.00
2022-08-27T12:40:52.187Z,99143.53
2022-08-27T12:43:28.974Z,99143.97
2022-08-27T12:46:05.253Z,99140.66
2022-08-27T12:48:39.493Z,99144.53
2022-08-27T12:51:18.798Z,99135.66
2022-08-27T12:53:55.570Z,99133.84
2022-08-27T12:56:42.123Z,99125.47
2022-08-27T12:59:24.659Z,99128.97
2022-08-27T13:01:54.884Z,99130.19
2022-08-27T13:04:27.437Z,99124.25
2022-08-27T13:06:54.878Z,99122.72
2022-08-27T13:09:34.298Z,99117.38
2022-08-27T13:12:05.696Z,99103.22
2022-08-27T13:14:39.139Z,99100.22
2022-08-27T13:17:20.696Z,99104.78
2022-08-27T13:19:59.861Z,99106.78
2022-08-27T13:22:31.762Z,99102.47
2022-08-27T13:25:02.993Z,99102.56
2022-08-27T13:27:35.716Z,99103.66
2022-08-27T13:30:07.619Z,99092.22
2022-08-27T13:32:36.918Z,99091.91
2022-08-27T13:35:06.711Z,99093.47
2022-08-27T13:37:49.786Z,99100.66
2022-08-27T13:40:34.702Z,99100.97
2022-08-27T13:43:08.659Z,99096.13
2022-08-27T13:45:39.949Z,99101.78
2022-08-27T13:48:07.567Z,99101.16
2022-08-27T13:50:37.628Z,99099.00
2022-08-27T13:53:28.230Z,99097.78
2022-08-27T13:55:59.026Z,99104.53
2022-08-27T13:58:28.879Z,99103.53
2022-08-27T14:01:23.976Z,99103.28
2022-08-27T14:04:08.431Z,99103.06
2022-08-27T14:06:45.402Z,99098.84
2022-08-27T14:09:19.273Z,99100.25
2022-08-27T14:11:49.729Z,99104.06
2022-08-27T14:14:19.111Z,99094.09
2022-08-27T14:16:58.282Z,99094.56
2022-08-27T14:19:33.369Z,99092.31
2022-08-27T14:22:09.335Z,99090.81
2022-08-27T14:24:36.482Z,99086.75
2022-08-27T14:27:10.853Z,99080.72
2022-08-27T14:29:38.243Z,99087.97
2022-08-27T14:32:07.784Z,99086.09
2022-08-27T14:34:35.638Z,99090.34
2022-08-27T14:37:05.425Z,99080.38
2022-08-27T14:39:34.884Z,99080.84
2022-08-27T14:42:02.492Z,99083.56
2022-08-27T14:44:32.451Z,99082.38
2022-08-27T14:47:00.345Z,99084.44
2022-08-27T14:49:32.136Z,99075.41
2022-08-27T14:51:59.572Z,99074.50
2022-08-27T14:54:29.132Z,99069.41
2022-08-27T14:57:03.783Z,99069.59
2022-08-27T14:59:31.991Z,99073.47
2022-08-27T15:01:59.958Z,99072.97
2022-08-27T15:04:29.010Z,99066.44
2022-08-27T15:06:59.009Z,99073.75
2022-08-27T15:09:27.189Z,99067.91
2022-08-27T15:11:58.025Z,99074.56
2022-08-27T15:14:36.254Z,99074.16
2022-08-27T15:17:10.972Z,99071.34
2022-08-27T15:19:56.371Z,99062.34
2022-08-27T15:22:26.979Z,99062.22
2022-08-27T15:24:57.246Z,99059.94
2022-08-27T15:27:30.091Z,99059.44
2022-08-27T15:30:08.926Z,99061.25
2022-08-27T15:32:44.230Z,99061.56
2022-08-27T15:35:14.966Z,99064.69
2022-08-27T15:37:43.198Z,99067.69
2022-08-27T15:40:12.520Z,99064.34
2022-08-27T15:42:39.626Z,99066.78
2022-08-27T15:45:11.559Z,99059.91
2022-08-27T15:47:39.126Z,99063.34
2022-08-27T15:50:07.932Z,99053.59
2022-08-27T15:52:40.875Z,99061.78
2022-08-27T15:55:27.032Z,99057.09
2022-08-27T15:57:56.608Z,99061.75
2022-08-27T16:00:24.341Z,99060.00
2022-08-27T16:02:52.718Z,99068.13
2022-08-27T16:05:22.070Z,99074.97
2022-08-27T16:07:49.153Z,99071.97
2022-08-27T16:10:18.804Z,99072.47
2022-08-27T16:12:46.436Z,99072.84
2022-08-27T16:15:14.528Z,99073.44
2022-08-27T16:17:43.178Z,99080.50
2022-08-27T16:20:14.964Z,99082.34
2022-08-27T16:22:42.497Z,99080.09
2022-08-27T16:25:12.317Z,99076.44
2022-08-27T16:27:44.833Z,99081.97
2022-08-27T16:30:12.813Z,99080.66
2022-08-27T16:32:39.996Z,99090.75
2022-08-27T16:35:08.811Z,99084.66
2022-08-27T16:37:35.801Z,99077.84
2022-08-27T16:40:03.232Z,99072.72
2022-08-27T16:42:30.537Z,99070.91
2022-08-27T16:44:57.668Z,99079.72
2022-08-27T16:47:24.626Z,99081.47
2022-08-27T16:50:10.369Z,99079.75
2022-08-27T16:52:49.979Z,99080.88
2022-08-27T16:55:17.266Z,99071.56
2022-08-27T16:57:44.305Z,99077.69
2022-08-27T17:00:11.525Z,99080.53
2022-08-27T17:02:38.925Z,99087.56
2022-08-27T17:05:30.670Z,99096.03
2022-08-27T17:07:54.240Z,99095.47
2022-08-27T17:10:21.663Z,99100.78
2022-08-27T17:12:49.391Z,99112.78
2022-08-27T17:15:17.146Z,99109.50
2022-08-27T17:17:45.322Z,99114.34
2022-08-27T17:20:15.558Z,99110.75
2022-08-27T17:22:45.919Z,99123.03
2022-08-27T17:25:13.283Z,99120.19
2022-08-27T17:27:40.350Z,99124.03
2022-08-27T17:30:08.777Z,99125.22
2022-08-27T17:32:40.198Z,99126.19
2022-08-27T17:35:08.786Z,99140.44
2022-08-27T17:37:36.216Z,99140.91
2022-08-27T17:40:05.583Z,99148.25
2022-08-27T17:42:33.096Z,99147.75
2022-08-27T17:45:00.263Z,99151.78
2022-08-27T17:47:28.099Z,99156.81
2022-08-27T17:49:55.425Z,99162.09
2022-08-27T17:52:22.991Z,99166.00
2022-08-27T17:54:54.447Z,99168.09
2022-08-27T17:57:40.103Z,99173.84
2022-08-27T18:00:12.127Z,99180.16
2022-08-27T18:02:44.502Z,99169.25
2022-08-27T18:05:13.419Z,99172.50
2022-08-27T18:07:43.197Z,99170.94
2022-08-27T18:10:12.593Z,99173.66
2022-08-27T18:12:42.027Z,99175.97
2022-08-27T18:15:23.749Z,99184.06
2022-08-27T18:17:53.842Z,99167.38
2022-08-27T18:20:23.300Z,99169.88
2022-08-27T18:22:51.774Z,99178.19
2022-08-27T18:25:23.195Z,99170.91
2022-08-27T18:27:53.248Z,99181.19
2022-08-27T18:30:20.792Z,99185.19
2022-08-27T18:32:47.837Z,99184.75
2022-08-27T18:35:22.780Z,99190.06
2022-08-27T18:37:50.202Z,99190.72
2022-08-27T18:40:20.375Z,99192.59
2022-08-27T18:42:49.108Z,99201.69
2022-08-27T18:45:23.287Z,99200.75
2022-08-27T18:47:52.790Z,99190.53
2022-08-27T18:50:20.773Z,99194.22
2022-08-27T18:52:52.335Z,99193.25
2022-08-27T18:55:23.066Z,99191.06
2022-08-27T18:57:53.885Z,99192.09
2022-08-27T19:00:25.531Z,99190.31
2022-08-27T19:02:53.700Z,99191.47
2022-08-27T19:05:25.181Z,99185.38
2022-08-27T19:07:52.746Z,99187.34
2022-08-27T19:10:20.197Z,99189.63
2022-08-27T19:12:47.899Z,99179.56
2022-08-27T19:15:18.737Z,99177.00
2022-08-27T19:17:50.047Z,99181.47
2022-08-27T19:20:18.691Z,99184.06
2022-08-27T19:22:47.480Z,99175.72
2022-08-27T19:25:15.834Z,99185.13
2022-08-27T19:27:44.753Z,99180.75
2022-08-27T19:30:13.408Z,99177.00
2022-08-27T19:32:40.892Z,99176.63
2022-08-27T19:35:08.881Z,99180.22
2022-08-27T19:37:44.347Z,99185.00
2022-08-27T19:40:16.848Z,99200.97
2022-08-27T19:42:44.596Z,99190.28
2022-08-27T19:45:14.109Z,99190.41
2022-08-27T19:47:41.713Z,99197.16
2022-08-27T19:50:09.752Z,99191.19
2022-08-27T19:52:39.284Z,99198.69
2022-08-27T19:55:13.938Z,99192.41
2022-08-27T19:57:43.112Z,99185.41
2022-08-27T20:00:13.537Z,99189.13
2022-08-27T20:02:41.182Z,99182.53
2022-08-27T20:05:24.119Z,99191.69
2022-08-27T20:07:52.944Z,99184.09
2022-08-27T20:10:23.040Z,99187.75
2022-08-27T20:12:53.698Z,99205.81
2022-08-27T20:15:23.456Z,99205.69
2022-08-27T20:17:53.136Z,99203.09
2022-08-27T20:20:23.825Z,99215.75
2022-08-27T20:22:51.757Z,99221.38
2022-08-27T20:25:19.587Z,99228.03
2022-08-27T20:27:48.199Z,99238.06
2022-08-27T20:30:16.497Z,99249.38
2022-08-27T20:32:47.283Z,99251.44
2022-08-27T20:35:16.445Z,99266.78
2022-08-27T20:37:44.308Z,99273.28
2022-08-27T20:40:23.937Z,99279.38
2022-08-27T20:42:53.754Z,99292.50
2022-08-27T20:45:21.963Z,99287.22
2022-08-27T20:47:51.310Z,99284.28
2022-08-27T20:50:22.093Z,99281.22
2022-08-27T20:52:50.068Z,99286.91
2022-08-27T20:55:18.890Z,99294.91
2022-08-27T20:58:09.825Z,99304.50
2022-08-27T21:00:40.648Z,99294.69
2022-08-27T21:03:09.832Z,99284.47
2022-08-27T21:05:38.008Z,99251.19
2022-08-27T21:08:12.309Z,99238.13
2022-08-27T21:10:55.043Z,99213.69
2022-08-27T21:13:24.233Z,99208.75
2022-08-27T21:15:54.748Z,99213.19
2022-08-27T21:18:29.324Z,99227.56
2022-08-27T21:20:58.498Z,99234.69
2022-08-27T21:23:27.830Z,99225.81
2022-08-27T21:25:59.887Z,99219.94
2022-08-27T21:28:27.442Z,99217.69
2022-08-27T21:30:54.492Z,99217.44
2022-08-27T21:33:21.816Z,99209.41
2022-08-27T21:35:49.161Z,99204.25
2022-08-27T21:38:16.788Z,99204.09
2022-08-27T21:40:44.134Z,99207.50
2022-08-27T21:43:11.328Z,99200.28
2022-08-27T21:45:39.327Z,99195.72
2022-08-27T21:48:06.592Z,99209.00
2022-08-27T21:50:33.582Z,99218.19
2022-08-27T21:53:03.048Z,99225.41
2022-08-27T21:55:30.721Z,99227.81
2022-08-27T21:57:57.974Z,99219.78
2022-08-27T22:00:35.154Z,99218.03
2022-08-27T22:03:02.670Z,99213.47
2022-08-27T22:05:29.776Z,99213.47
2022-08-27T22:07:59.673Z,99215.81
2022-08-27T22:10:30.187Z,99219.78
2022-08-27T22:13:00.139Z,99209.00
2022-08-27T22:15:28.185Z,99204.28
2022-08-27T22:17:55.608Z,99199.97
2022-08-27T22:20:22.793Z,99194.38
2022-08-27T22:22:49.901Z,99200.13
2022-08-27T22:25:17.208Z,99192.00
2022-08-27T22:27:44.810Z,99186.41
2022-08-27T22:30:12.820Z,99181.81
2022-08-27T22:32:45.732Z,99166.72
2022-08-27T22:35:26.319Z,99160.09
2022-08-27T22:37:56.834Z,99159.09
2022-08-27T22:40:27.772Z,99154.63
2022-08-27T22:42:56.730Z,99167.81
2022-08-27T22:45:24.487Z,99171.06
2022-08-27T22:47:51.657Z,99172.53
2022-08-27T22:50:21.130Z,99188.78
2022-08-27T22:52:51.297Z,99212.75
2022-08-27T22:55:26.457Z,99231.34
2022-08-27T22:57:55.097Z,99259.72
2022-08-27T23:00:26.736Z,99267.41
2022-08-27T23:02:54.321Z,99282.47
2022-08-27T23:05:22.751Z,99311.88
2022-08-27T23:07:50.247Z,99319.16
2022-08-27T23:10:20.243Z,99301.41
2022-08-27T23:12:51.342Z,99298.75
2022-08-27T23:15:18.591Z,99310.41
2022-08-27T23:17:45.701Z,99315.91
2022-08-27T23:20:14.450Z,99298.75
2022-08-27T23:22:42.096Z,99289.84
2022-08-27T23:25:30.104Z,99300.81
2022-08-27T23:27:59.827Z,99295.91
2022-08-27T23:30:27.845Z,99290.75
2022-08-27T23:32:58.217Z,99272.88
2022-08-27T23:35:26.791Z,99269.03
2022-08-27T23:37:53.912Z,99275.09
2022-08-27T23:40:21.580Z,99280.56
2022-08-27T23:42:49.646Z,99282.47
2022-08-27T23:45:20.487Z,99271.09
2022-08-27T23:47:50.827Z,99283.66
2022-08-27T23:50:18.149Z,99281.88
2022-08-27T23:52:45.149Z,99268.44
2022-08-27T23:55:13.826Z,99266.38
2022-08-27T23:57:46.561Z,99263.72
